Time;durP1;ratioP1;P1;durP2;ratioP2;P2;SDS_P1;SDS_P2;PMS_P1;PMS_P2;Temp;Humidity;BMP_temperature;BMP_pressure;BME280_temperature;BME280_humidity;BME280_pressure;Samples;Min_cycle;Max_cycle;Signal;HPM_P1;HPM_P2
2022/10/10 00:00:25;;;;;;;24.48;22.40;;;;;;;;;;6277656;22;20004;-80
2022/10/10 00:02:52;;;;;;;26.48;24.08;;;;;;;;;;6278135;22;20439;-80
2022/10/10 00:05:18;;;;;;;25.73;23.38;;;;;;;;;;6277229;22;20028;-80
2022/10/10 00:07:44;;;;;;;28.13;25.75;;;;;;;;;;6277264;22;20015;-81
2022/10/10 00:10:10;;;;;;;26.55;24.00;;;;;;;;;;6277364;22;20006;-81
2022/10/10 00:12:36;;;;;;;26.02;23.63;;;;;;;;;;6277710;22;20385;-80
2022/10/10 00:15:03;;;;;;;27.20;24.77;;;;;;;;;;6277698;22;20011;-81
2022/10/10 00:17:29;;;;;;;27.45;25.08;;;;;;;;;;6277312;22;20042;-81
2022/10/10 00:19:55;;;;;;;27.63;25.23;;;;;;;;;;6277565;22;20010;-81
2022/10/10 00:22:21;;;;;;;29.88;26.80;;;;;;;;;;6277335;22;20035;-81
2022/10/10 00:24:47;;;;;;;27.95;25.52;;;;;;;;;;6277377;22;20007;-81
2022/10/10 00:27:13;;;;;;;28.17;25.77;;;;;;;;;;6275565;22;20034;-81
2022/10/10 00:29:39;;;;;;;27.15;24.70;;;;;;;;;;6277453;22;20004;-80
2022/10/10 00:32:05;;;;;;;26.58;24.27;;;;;;;;;;6277460;22;20474;-80
2022/10/10 00:34:31;;;;;;;26.63;24.23;;;;;;;;;;6277119;22;20000;-81
2022/10/10 00:36:57;;;;;;;26.60;24.27;;;;;;;;;;6277343;22;20000;-79
2022/10/10 00:39:23;;;;;;;26.45;24.02;;;;;;;;;;6277008;22;20007;-79
2022/10/10 00:41:50;;;;;;;27.75;25.25;;;;;;;;;;6277419;22;20025;-79
2022/10/10 00:44:16;;;;;;;27.65;25.13;;;;;;;;;;6277325;22;20003;-79
2022/10/10 00:46:42;;;;;;;25.67;23.42;;;;;;;;;;6276919;22;20041;-79
2022/10/10 00:49:14;;;;;;;26.30;23.80;;;;;;;;;;6277329;22;19996;-81
2022/10/10 00:51:41;;;;;;;26.30;23.75;;;;;;;;;;6277083;22;20000;-80
2022/10/10 00:54:08;;;;;;;26.55;24.33;;;;;;;;;;6277321;22;20000;-80
2022/10/10 00:56:41;;;;;;;26.45;24.05;;;;;;;;;;6276769;22;20004;-82
2022/10/10 00:59:10;;;;;;;26.23;23.67;;;;;;;;;;6276944;22;20020;-80
2022/10/10 01:01:36;;;;;;;28.63;26.15;;;;;;;;;;6277073;22;19996;-81
2022/10/10 01:04:03;;;;;;;26.15;23.92;;;;;;;;;;6277291;22;20000;-81
2022/10/10 01:06:29;;;;;;;26.83;24.23;;;;;;;;;;6276417;22;20014;-81
2022/10/10 01:08:56;;;;;;;26.15;23.73;;;;;;;;;;6276632;22;20007;-79
2022/10/10 01:11:25;;;;;;;26.67;24.13;;;;;;;;;;6275597;22;20000;-80
2022/10/10 01:13:55;;;;;;;27.25;24.98;;;;;;;;;;6276551;22;19999;-81
2022/10/10 01:16:26;;;;;;;26.92;24.42;;;;;;;;;;6276726;22;20007;-80
2022/10/10 01:19:02;;;;;;;26.80;24.40;;;;;;;;;;6276873;22;20032;-80
2022/10/10 01:21:37;;;;;;;28.27;25.65;;;;;;;;;;6276992;22;20066;-81
2022/10/10 01:24:03;;;;;;;27.25;24.55;;;;;;;;;;6276492;22;20439;-80
2022/10/10 01:26:48;;;;;;;25.65;23.35;;;;;;;;;;6276980;22;20090;-81
2022/10/10 01:29:14;;;;;;;;;;;;;;;;;;6275415;22;20385;-79
2022/10/10 01:31:43;;;;;;;26.95;24.30;;;;;;;;;;6276401;22;19899;-81
2022/10/10 01:34:27;;;;;;;26.52;24.20;;;;;;;;;;6276927;22;20004;-81
2022/10/10 01:36:58;;;;;;;27.75;25.13;;;;;;;;;;6276834;22;20439;-81
2022/10/10 01:39:31;;;;;;;27.60;25.00;;;;;;;;;;6276690;22;20007;-80
2022/10/10 01:42:07;;;;;;;26.55;24.15;;;;;;;;;;6276607;22;20006;-79
2022/10/10 01:44:33;;;;;;;28.38;25.88;;;;;;;;;;6276694;22;20004;-79
2022/10/10 01:46:59;;;;;;;28.60;25.95;;;;;;;;;;6276693;22;20335;-81
2022/10/10 01:49:28;;;;;;;29.20;26.50;;;;;;;;;;6276515;22;20006;-81
2022/10/10 01:52:09;;;;;;;27.90;25.25;;;;;;;;;;6276643;22;20331;-79
2022/10/10 01:54:41;;;;;;;28.83;26.13;;;;;;;;;;6276619;22;20026;-80
2022/10/10 01:57:20;;;;;;;30.67;27.60;;;;;;;;;;6276390;22;20007;-80
2022/10/10 02:00:04;;;;;;;29.27;26.75;;;;;;;;;;6276215;22;20047;-81
2022/10/10 02:02:39;;;;;;;27.75;25.35;;;;;;;;;;6276587;22;20000;-81
2022/10/10 02:05:05;;;;;;;28.98;26.17;;;;;;;;;;6276576;22;19999;-81
2022/10/10 02:07:58;;;;;;;27.52;24.83;;;;;;;;;;6276054;22;20012;-81
2022/10/10 02:10:28;;;;;;;29.55;26.75;;;;;;;;;;6252373;22;20473;-80
2022/10/10 02:12:55;;;;;;;29.85;27.23;;;;;;;;;;6276346;22;20008;-80
2022/10/10 02:15:23;;;;;;;28.75;26.25;;;;;;;;;;6276364;22;20023;-79
2022/10/10 02:17:50;;;;;;;28.15;25.73;;;;;;;;;;6276459;22;20010;-81
2022/10/10 02:20:17;;;;;;;28.15;25.63;;;;;;;;;;6276197;22;20003;-80
2022/10/10 02:22:44;;;;;;;28.70;25.92;;;;;;;;;;6276197;22;20004;-79
2022/10/10 02:25:11;;;;;;;28.70;26.20;;;;;;;;;;6276049;22;20046;-79
2022/10/10 02:27:40;;;;;;;28.65;26.05;;;;;;;;;;6276344;22;20007;-80
2022/10/10 02:30:06;;;;;;;30.40;27.50;;;;;;;;;;6276068;22;20007;-79
2022/10/10 02:32:39;;;;;;;28.35;25.50;;;;;;;;;;6274702;22;20077;-81
2022/10/10 02:35:15;;;;;;;28.15;25.60;;;;;;;;;;6276052;22;20046;-81
2022/10/10 02:37:41;;;;;;;27.95;25.42;;;;;;;;;;6276247;22;20375;-79
2022/10/10 02:40:09;;;;;;;28.50;25.88;;;;;;;;;;6275751;22;19999;-79
2022/10/10 02:42:36;;;;;;;29.67;26.90;;;;;;;;;;6276229;22;20003;-79
2022/10/10 02:45:03;;;;;;;28.50;26.00;;;;;;;;;;6275560;22;20000;-81
2022/10/10 02:47:29;;;;;;;28.67;25.95;;;;;;;;;;6276106;22;20065;-81
2022/10/10 02:49:55;;;;;;;29.52;26.90;;;;;;;;;;6275845;22;20330;-81
2022/10/10 02:52:21;;;;;;;28.92;25.85;;;;;;;;;;6276250;22;20000;-80
2022/10/10 02:54:47;;;;;;;29.67;27.08;;;;;;;;;;6276015;22;20075;-80
2022/10/10 02:57:13;;;;;;;28.63;25.80;;;;;;;;;;6276019;22;19996;-79
2022/10/10 02:59:39;;;;;;;28.70;26.27;;;;;;;;;;6275735;22;20157;-81
2022/10/10 03:02:06;;;;;;;26.83;24.40;;;;;;;;;;6275794;22;20010;-80
2022/10/10 03:04:32;;;;;;;28.33;25.58;;;;;;;;;;6276433;22;20004;-80
2022/10/10 03:06:58;;;;;;;26.30;23.80;;;;;;;;;;6275699;22;20485;-80
2022/10/10 03:09:24;;;;;;;27.65;25.08;;;;;;;;;;6276132;22;20027;-80
2022/10/10 03:11:50;;;;;;;30.73;27.70;;;;;;;;;;6275914;22;20061;-80
2022/10/10 03:14:16;;;;;;;30.88;27.63;;;;;;;;;;6275722;22;19999;-80
2022/10/10 03:16:42;;;;;;;31.48;26.17;;;;;;;;;;6276073;22;20358;-81
2022/10/10 03:19:08;;;;;;;27.10;24.50;;;;;;;;;;6275831;22;20004;-79
2022/10/10 03:21:35;;;;;;;28.70;26.05;;;;;;;;;;6275893;22;20037;-79
2022/10/10 03:24:01;;;;;;;27.63;25.23;;;;;;;;;;6275706;22;20079;-79
2022/10/10 03:26:27;;;;;;;29.42;26.70;;;;;;;;;;6275868;22;20082;-79
2022/10/10 03:28:53;;;;;;;28.77;25.90;;;;;;;;;;6275857;22;20026;-81
2022/10/10 03:31:19;;;;;;;27.42;24.92;;;;;;;;;;6275599;22;20011;-78
2022/10/10 03:33:45;;;;;;;25.77;23.38;;;;;;;;;;6275699;22;20011;-80
2022/10/10 03:36:12;;;;;;;27.13;24.73;;;;;;;;;;6275389;22;20567;-80
2022/10/10 03:38:39;;;;;;;34.20;30.98;;;;;;;;;;6275808;22;20003;-80
2022/10/10 03:41:05;;;;;;;37.42;33.80;;;;;;;;;;6275576;22;20004;-79
2022/10/10 03:43:31;;;;;;;37.88;34.03;;;;;;;;;;6275256;22;20031;-80
2022/10/10 03:45:57;;;;;;;34.33;31.23;;;;;;;;;;6275649;22;19996;-80
2022/10/10 03:48:23;;;;;;;33.50;30.10;;;;;;;;;;6275035;22;20018;-79
2022/10/10 03:50:49;;;;;;;33.95;30.45;;;;;;;;;;6275585;22;20323;-79
2022/10/10 03:53:15;;;;;;;29.63;26.85;;;;;;;;;;6275092;22;20008;-81
2022/10/10 03:55:42;;;;;;;33.85;30.52;;;;;;;;;;6275471;22;20124;-81
2022/10/10 03:58:09;;;;;;;30.92;28.02;;;;;;;;;;6275535;22;20019;-79
2022/10/10 04:00:35;;;;;;;30.70;27.63;;;;;;;;;;6273434;22;20335;-80
2022/10/10 04:03:05;;;;;;;30.10;27.23;;;;;;;;;;6274002;22;20415;-80
2022/10/10 04:05:33;;;;;;;33.53;30.42;;;;;;;;;;6275125;22;22319;-79
2022/10/10 04:07:59;;;;;;;33.08;29.73;;;;;;;;;;6275285;22;19999;-81
2022/10/10 04:10:25;;;;;;;30.92;28.02;;;;;;;;;;6275328;22;20003;-80
2022/10/10 04:12:51;;;;;;;32.55;29.40;;;;;;;;;;6275629;22;20079;-79
2022/10/10 04:15:17;;;;;;;30.90;28.00;;;;;;;;;;6275290;22;19995;-81
2022/10/10 04:17:43;;;;;;;31.45;28.45;;;;;;;;;;6275608;22;20449;-80
2022/10/10 04:20:09;;;;;;;34.25;31.02;;;;;;;;;;6275405;22;20026;-79
2022/10/10 04:22:35;;;;;;;32.60;29.45;;;;;;;;;;6275423;22;20438;-80
2022/10/10 04:25:01;;;;;;;35.78;32.38;;;;;;;;;;6275534;22;20011;-80
2022/10/10 04:27:27;;;;;;;35.67;32.25;;;;;;;;;;6275197;22;20407;-81
2022/10/10 04:29:54;;;;;;;34.83;31.42;;;;;;;;;;6275431;22;20073;-79
2022/10/10 04:32:20;;;;;;;36.05;32.60;;;;;;;;;;6275217;22;19999;-80
2022/10/10 04:34:46;;;;;;;36.83;33.13;;;;;;;;;;6275298;22;20045;-80
2022/10/10 04:37:12;;;;;;;45.45;40.97;;;;;;;;;;6275270;22;20000;-78
2022/10/10 04:39:38;;;;;;;49.60;44.78;;;;;;;;;;6275075;22;20071;-80
2022/10/10 04:42:04;;;;;;;36.40;32.78;;;;;;;;;;6275234;22;20042;-80
2022/10/10 04:44:30;;;;;;;43.70;38.95;;;;;;;;;;6273547;22;20312;-80
2022/10/10 04:46:56;;;;;;;77.55;66.43;;;;;;;;;;6277111;22;20158;-80
2022/10/10 04:49:22;;;;;;;50.47;44.15;;;;;;;;;;6276980;22;19999;-79
2022/10/10 04:51:49;;;;;;;30.05;27.23;;;;;;;;;;6277097;22;20022;-78
2022/10/10 04:54:15;;;;;;;26.98;24.27;;;;;;;;;;6277114;22;20007;-78
2022/10/10 04:56:41;;;;;;;25.85;23.38;;;;;;;;;;6276579;22;20331;-79
2022/10/10 04:59:08;;;;;;;25.85;23.42;;;;;;;;;;6276720;22;20020;-77
2022/10/10 05:01:34;;;;;;;25.70;23.20;;;;;;;;;;6276686;22;20074;-80
2022/10/10 05:04:00;;;;;;;27.73;25.00;;;;;;;;;;6276973;22;20010;-78
2022/10/10 05:06:26;;;;;;;28.00;25.40;;;;;;;;;;6276977;22;20446;-80
2022/10/10 05:08:52;;;;;;;27.83;25.17;;;;;;;;;;6276995;22;20067;-79
2022/10/10 05:11:18;;;;;;;34.20;30.92;;;;;;;;;;6276781;22;20413;-78
2022/10/10 05:13:44;;;;;;;33.10;29.80;;;;;;;;;;6276556;22;20000;-77
2022/10/10 05:16:10;;;;;;;37.55;33.85;;;;;;;;;;6275055;22;20000;-80
2022/10/10 05:18:37;;;;;;;39.35;35.60;;;;;;;;;;6276636;22;20062;-79
2022/10/10 05:21:05;;;;;;;40.40;36.67;;;;;;;;;;6277217;22;20007;-80
2022/10/10 05:23:32;;;;;;;39.00;34.90;;;;;;;;;;6276405;22;19999;-79
2022/10/10 05:25:58;;;;;;;38.67;34.63;;;;;;;;;;6275579;22;20415;-79
2022/10/10 05:28:24;;;;;;;38.55;34.63;;;;;;;;;;6276794;22;20003;-79
2022/10/10 05:30:51;;;;;;;37.92;32.88;;;;;;;;;;6276378;22;20331;-80
2022/10/10 05:33:17;;;;;;;42.08;37.67;;;;;;;;;;6274262;22;20004;-79
2022/10/10 05:35:44;;;;;;;34.78;31.20;;;;;;;;;;6272696;22;20700;-80
2022/10/10 05:38:10;;;;;;;31.42;28.38;;;;;;;;;;6274045;22;20428;-78
2022/10/10 05:40:40;;;;;;;29.85;27.10;;;;;;;;;;6275154;22;20008;-81
2022/10/10 05:43:06;;;;;;;32.40;29.20;;;;;;;;;;6275099;22;20045;-79
2022/10/10 05:45:32;;;;;;;33.72;30.23;;;;;;;;;;6275226;22;20058;-78
2022/10/10 05:47:58;;;;;;;39.15;35.25;;;;;;;;;;6275896;22;20076;-80
2022/10/10 05:50:34;;;;;;;39.55;35.42;;;;;;;;;;6276234;22;20007;-81
2022/10/10 05:53:00;;;;;;;50.22;44.80;;;;;;;;;;6276031;22;20011;-80
2022/10/10 05:55:26;;;;;;;39.47;35.30;;;;;;;;;;6271337;22;20074;-81
2022/10/10 05:57:52;;;;;;;43.17;38.55;;;;;;;;;;6273790;22;20526;-80
2022/10/10 06:00:19;;;;;;;37.80;33.83;;;;;;;;;;6273830;22;20028;-81
2022/10/10 06:02:45;;;;;;;35.83;32.20;;;;;;;;;;6273030;22;20000;-81
2022/10/10 06:05:11;;;;;;;42.88;38.00;;;;;;;;;;6274684;22;20003;-81
2022/10/10 06:07:37;;;;;;;39.30;35.63;;;;;;;;;;6274175;22;20011;-81
2022/10/10 06:10:04;;;;;;;36.92;33.08;;;;;;;;;;6274288;22;20011;-81
2022/10/10 06:12:30;;;;;;;35.25;31.80;;;;;;;;;;6274773;22;20034;-78
2022/10/10 06:14:56;;;;;;;35.85;32.15;;;;;;;;;;6274388;22;19999;-80
2022/10/10 06:17:22;;;;;;;34.03;30.75;;;;;;;;;;6273644;22;20437;-79
2022/10/10 06:19:48;;;;;;;33.75;30.55;;;;;;;;;;6274390;22;20085;-79
2022/10/10 06:22:15;;;;;;;33.53;30.17;;;;;;;;;;6274138;22;20316;-79
2022/10/10 06:24:41;;;;;;;33.25;29.85;;;;;;;;;;6274441;22;20069;-80
2022/10/10 06:27:07;;;;;;;33.53;30.20;;;;;;;;;;6274334;22;20012;-81
2022/10/10 06:29:33;;;;;;;33.33;30.33;;;;;;;;;;6273860;22;20107;-81
2022/10/10 06:31:59;;;;;;;32.92;29.83;;;;;;;;;;6273786;22;20008;-81
2022/10/10 06:34:25;;;;;;;34.47;31.25;;;;;;;;;;6273515;22;20003;-80
2022/10/10 06:36:52;;;;;;;34.92;31.33;;;;;;;;;;6273967;22;20000;-81
2022/10/10 06:39:18;;;;;;;35.47;32.28;;;;;;;;;;6274333;22;20007;-81
2022/10/10 06:41:44;;;;;;;32.22;29.17;;;;;;;;;;6272028;22;20004;-80
2022/10/10 06:44:11;;;;;;;29.77;26.73;;;;;;;;;;6274025;22;20008;-80
2022/10/10 06:46:37;;;;;;;31.83;28.90;;;;;;;;;;6273829;22;20011;-79
2022/10/10 06:49:03;;;;;;;31.08;28.15;;;;;;;;;;6273083;22;20005;-79
2022/10/10 06:51:30;;;;;;;32.50;29.40;;;;;;;;;;6273073;22;20327;-80
2022/10/10 06:53:56;;;;;;;29.92;26.88;;;;;;;;;;6271677;22;20430;-81
2022/10/10 06:56:23;;;;;;;30.30;27.42;;;;;;;;;;6273302;22;20023;-79
2022/10/10 06:58:49;;;;;;;29.80;27.10;;;;;;;;;;6274016;22;20443;-81
2022/10/10 07:01:17;;;;;;;30.42;27.48;;;;;;;;;;6273929;22;20007;-80
2022/10/10 07:03:43;;;;;;;31.08;28.25;;;;;;;;;;6274474;22;20057;-83
2022/10/10 07:06:10;;;;;;;31.55;28.55;;;;;;;;;;6273534;22;20088;-80
2022/10/10 07:08:37;;;;;;;29.15;26.45;;;;;;;;;;6273136;22;20387;-81
2022/10/10 07:11:04;;;;;;;35.90;26.60;;;;;;;;;;6271376;22;20007;-79
2022/10/10 07:13:30;;;;;;;29.15;25.85;;;;;;;;;;6273551;22;20312;-82
2022/10/10 07:15:56;;;;;;;29.00;26.25;;;;;;;;;;6273357;22;20076;-80
2022/10/10 07:18:22;;;;;;;27.05;24.38;;;;;;;;;;6274041;22;20003;-79
2022/10/10 07:20:49;;;;;;;29.88;26.95;;;;;;;;;;6273774;22;20003;-80
2022/10/10 07:23:16;;;;;;;30.50;27.40;;;;;;;;;;6273911;22;20015;-82
2022/10/10 07:25:42;;;;;;;28.45;25.75;;;;;;;;;;6272632;22;20039;-82
2022/10/10 07:28:09;;;;;;;28.23;25.58;;;;;;;;;;6273083;22;20074;-82
2022/10/10 07:30:42;;;;;;;28.65;25.88;;;;;;;;;;6273095;22;20003;-79
2022/10/10 07:33:09;;;;;;;36.08;32.08;;;;;;;;;;6273702;22;20015;-78
2022/10/10 07:35:35;;;;;;;30.30;27.40;;;;;;;;;;6273332;22;19996;-77
2022/10/10 07:38:01;;;;;;;29.40;26.60;;;;;;;;;;6269859;22;20304;-77
2022/10/10 07:40:28;;;;;;;31.15;28.13;;;;;;;;;;6270853;22;20008;-79
2022/10/10 07:42:58;;;;;;;29.60;26.48;;;;;;;;;;6246163;22;20026;-79
2022/10/10 07:45:25;;;;;;;32.05;28.60;;;;;;;;;;6270529;22;20136;-79
2022/10/10 07:47:52;;;;;;;29.77;26.65;;;;;;;;;;6273788;22;20088;-76
2022/10/10 07:50:18;;;;;;;28.13;25.35;;;;;;;;;;6273188;22;20477;-78
2022/10/10 07:52:44;;;;;;;25.80;23.33;;;;;;;;;;6274002;22;20007;-78
2022/10/10 07:55:10;;;;;;;27.13;24.23;;;;;;;;;;6273593;22;20448;-77
2022/10/10 07:57:36;;;;;;;23.58;21.38;;;;;;;;;;6271532;22;20082;-78
2022/10/10 08:00:07;;;;;;;23.23;21.08;;;;;;;;;;6272182;22;20450;-78
2022/10/10 08:02:34;;;;;;;24.50;22.38;;;;;;;;;;6272689;22;20082;-77
2022/10/10 08:05:00;;;;;;;28.10;25.38;;;;;;;;;;6272248;22;20004;-78
2022/10/10 08:07:26;;;;;;;23.40;21.23;;;;;;;;;;6271945;22;20431;-78
2022/10/10 08:09:52;;;;;;;22.83;20.48;;;;;;;;;;6273859;22;20008;-77
2022/10/10 08:12:18;;;;;;;23.98;21.90;;;;;;;;;;6272988;22;20042;-78
2022/10/10 08:14:44;;;;;;;21.92;19.92;;;;;;;;;;6272997;22;20011;-76
2022/10/10 08:17:11;;;;;;;25.45;23.05;;;;;;;;;;6272100;22;20446;-78
2022/10/10 08:19:37;;;;;;;24.30;22.00;;;;;;;;;;6273319;22;20004;-78
2022/10/10 08:22:03;;;;;;;22.83;20.63;;;;;;;;;;6275835;22;20373;-78
2022/10/10 08:24:29;;;;;;;24.10;21.73;;;;;;;;;;6274112;22;20034;-80
2022/10/10 08:26:55;;;;;;;41.95;37.47;;;;;;;;;;6272790;22;20339;-80
2022/10/10 08:29:21;;;;;;;26.92;24.30;;;;;;;;;;6274523;22;20006;-80
2022/10/10 08:31:47;;;;;;;22.42;20.23;;;;;;;;;;6273359;22;20003;-84
2022/10/10 08:34:13;;;;;;;21.23;19.25;;;;;;;;;;6273679;22;20058;-81
2022/10/10 08:36:39;;;;;;;21.70;19.67;;;;;;;;;;6273620;22;20035;-80
2022/10/10 08:39:06;;;;;;;22.15;19.98;;;;;;;;;;6276024;22;19999;-83
2022/10/10 08:41:32;;;;;;;21.50;19.60;;;;;;;;;;6275792;22;20491;-81
2022/10/10 08:44:00;;;;;;;24.13;21.58;;;;;;;;;;6275800;22;20674;-82
2022/10/10 08:46:32;;;;;;;36.28;32.92;;;;;;;;;;6275420;22;20012;-85
2022/10/10 08:49:02;;;;;;;23.60;21.30;;;;;;;;;;6275063;22;20453;-83
2022/10/10 08:51:31;;;;;;;26.95;24.40;;;;;;;;;;6274166;22;19996;-82
2022/10/10 08:54:01;;;;;;;25.20;22.70;;;;;;;;;;6274229;22;20007;-85
2022/10/10 08:56:30;;;;;;;32.13;28.95;;;;;;;;;;6275153;22;20008;-84
2022/10/10 08:59:00;;;;;;;22.13;20.02;;;;;;;;;;6274613;22;20434;-82
2022/10/10 09:01:34;;;;;;;21.80;19.70;;;;;;;;;;6274964;22;20015;-84
2022/10/10 09:04:01;;;;;;;19.75;17.85;;;;;;;;;;6275556;22;20031;-84
2022/10/10 09:06:33;;;;;;;20.02;18.23;;;;;;;;;;6274916;22;20015;-82
2022/10/10 09:09:18;;;;;;;20.60;18.52;;;;;;;;;;6274712;22;20000;-78
2022/10/10 09:11:44;;;;;;;21.33;19.45;;;;;;;;;;6272676;22;20011;-80
2022/10/10 09:14:29;;;;;;;25.23;23.08;;;;;;;;;;6275917;22;20031;-80
2022/10/10 09:17:13;;;;;;;21.38;19.48;;;;;;;;;;6275570;22;20003;-79
2022/10/10 09:20:02;;;;;;;22.35;20.27;;;;;;;;;;6275317;22;20007;-80
2022/10/10 09:22:30;;;;;;;19.50;17.73;;;;;;;;;;6275236;22;20080;-80
2022/10/10 09:25:03;;;;;;;20.88;18.98;;;;;;;;;;6274456;22;20004;-80
2022/10/10 09:27:31;;;;;;;20.95;19.08;;;;;;;;;;6275194;22;20381;-84
2022/10/10 09:30:03;;;;;;;22.05;20.05;;;;;;;;;;6274738;22;20010;-81
2022/10/10 09:32:44;;;;;;;20.60;18.80;;;;;;;;;;6274821;22;20025;-85
2022/10/10 09:35:28;;;;;;;23.08;20.98;;;;;;;;;;6275188;22;20007;-80
2022/10/10 09:38:01;;;;;;;33.65;30.23;;;;;;;;;;6274887;22;19995;-82
2022/10/10 09:40:34;;;;;;;26.02;23.58;;;;;;;;;;6275136;22;20000;-81
2022/10/10 09:43:08;;;;;;;23.92;21.52;;;;;;;;;;6275284;22;20415;-80
2022/10/10 09:45:38;;;;;;;20.83;18.77;;;;;;;;;;6273313;22;20011;-81
2022/10/10 09:48:04;;;;;;;21.02;19.05;;;;;;;;;;6273119;22;20015;-84
2022/10/10 09:50:30;;;;;;;20.75;18.88;;;;;;;;;;6274815;22;20008;-81
2022/10/10 09:52:58;;;;;;;20.42;18.63;;;;;;;;;;6273902;22;20317;-83
2022/10/10 09:55:24;;;;;;;20.38;18.70;;;;;;;;;;6272008;22;20317;-84
2022/10/10 09:57:52;;;;;;;21.10;19.33;;;;;;;;;;6273082;22;20308;-83
2022/10/10 10:00:18;;;;;;;20.50;18.67;;;;;;;;;;6273863;22;20004;-81
2022/10/10 10:02:47;;;;;;;21.42;19.63;;;;;;;;;;6273403;22;20339;-84
2022/10/10 10:05:18;;;;;;;19.65;17.85;;;;;;;;;;6270820;22;20343;-82
2022/10/10 10:07:48;;;;;;;20.42;18.48;;;;;;;;;;6270512;22;20015;-82
2022/10/10 10:10:32;;;;;;;20.52;18.83;;;;;;;;;;6272156;22;20074;-82
2022/10/10 10:12:58;;;;;;;;;;;;;;;;;;6274724;22;20035;-84
2022/10/10 10:15:27;;;;;;;17.30;15.73;;;;;;;;;;6274671;22;19946;-81
2022/10/10 10:18:13;;;;;;;19.33;16.77;;;;;;;;;;6274404;22;20387;-82
2022/10/10 10:20:40;;;;;;;18.50;16.90;;;;;;;;;;6273366;22;20343;-79
2022/10/10 10:23:22;;;;;;;18.95;17.25;;;;;;;;;;6274197;22;20004;-81
2022/10/10 10:25:56;;;;;;;17.75;16.15;;;;;;;;;;6274153;22;20014;-82
2022/10/10 10:28:22;;;;;;;;;;;;;;;;;;6275257;22;20006;-83
2022/10/10 10:30:48;;;;;;;18.48;15.90;;;;;;;;;;6274024;22;19900;-83
2022/10/10 10:33:33;;;;;;;16.80;15.40;;;;;;;;;;6274147;22;20004;-83
2022/10/10 10:35:59;;;;;;;;;;;;;;;;;;6273787;22;20010;-83
2022/10/10 10:38:25;;;;;;;18.95;17.25;;;;;;;;;;6273651;22;19899;-80
2022/10/10 10:40:54;;;;;;;26.85;24.23;;;;;;;;;;6271584;22;20057;-81
2022/10/10 10:43:39;;;;;;;34.03;30.42;;;;;;;;;;6271803;22;20011;-82
2022/10/10 10:46:24;;;;;;;62.13;53.85;;;;;;;;;;6273887;22;20379;-80
2022/10/10 10:49:01;;;;;;;27.85;24.85;;;;;;;;;;6272698;22;20312;-83
2022/10/10 10:51:35;;;;;;;28.67;25.60;;;;;;;;;;6274692;22;20030;-81
2022/10/10 10:54:01;;;;;;;;;;;;;;;;;;6273764;22;20450;-80
2022/10/10 10:56:35;;;;;;;20.95;18.70;;;;;;;;;;6275375;22;19899;-78
2022/10/10 10:59:19;;;;;;;18.25;16.65;;;;;;;;;;6275499;22;20023;-80
2022/10/10 11:01:45;;;;;;;;;;;;;;;;;;6275248;22;20434;-78
2022/10/10 11:04:30;;;;;;;16.83;15.23;;;;;;;;;;6275246;22;19982;-85
2022/10/10 11:06:56;;;;;;;15.10;13.80;;;;;;;;;;6273539;22;20010;-79
2022/10/10 11:09:34;;;;;;;15.35;13.85;;;;;;;;;;6274707;22;20000;-80
2022/10/10 11:12:09;;;;;;;15.52;13.95;;;;;;;;;;6273396;22;20004;-78
2022/10/10 11:14:56;;;;;;;14.23;13.02;;;;;;;;;;6275813;22;20007;-82
2022/10/10 11:17:41;;;;;;;14.40;13.20;;;;;;;;;;6274862;22;20446;-81
2022/10/10 11:20:22;;;;;;;18.67;16.77;;;;;;;;;;6274119;22;20050;-82
2022/10/10 11:22:52;;;;;;;20.80;18.75;;;;;;;;;;6274312;22;20027;-80
2022/10/10 11:25:27;;;;;;;16.30;14.80;;;;;;;;;;6273817;22;20030;-79
2022/10/10 11:28:11;;;;;;;17.35;15.65;;;;;;;;;;6274121;22;20065;-79
2022/10/10 11:30:44;;;;;;;13.95;12.55;;;;;;;;;;6272471;22;20370;-80
2022/10/10 11:33:13;;;;;;;17.67;15.05;;;;;;;;;;6273854;22;20003;-81
2022/10/10 11:35:40;;;;;;;13.93;12.52;;;;;;;;;;6274911;22;20075;-89
2022/10/10 11:38:25;;;;;;;19.83;17.85;;;;;;;;;;6275606;22;20079;-81
2022/10/10 11:40:54;;;;;;;26.70;24.02;;;;;;;;;;6275246;22;20003;-83
2022/10/10 11:43:32;;;;;;;19.45;17.80;;;;;;;;;;6273232;22;20053;-80
2022/10/10 11:46:17;;;;;;;18.65;16.98;;;;;;;;;;6275264;22;20039;-83
2022/10/10 11:48:46;;;;;;;18.45;16.60;;;;;;;;;;6275346;22;19996;-80
2022/10/10 11:51:31;;;;;;;14.32;12.63;;;;;;;;;;6274626;22;19996;-84
2022/10/10 11:54:00;;;;;;;18.27;16.42;;;;;;;;;;6273548;22;20007;-85
2022/10/10 11:56:36;;;;;;;15.80;14.30;;;;;;;;;;6277895;22;20095;-85
2022/10/10 11:59:22;;;;;;;11.93;10.93;;;;;;;;;;6276695;22;20466;-82
2022/10/10 12:01:51;;;;;;;12.32;10.02;;;;;;;;;;6276633;22;20050;-84
2022/10/10 12:04:17;;;;;;;13.00;11.70;;;;;;;;;;6277536;22;20003;-86
2022/10/10 12:06:48;;;;;;;12.25;10.50;;;;;;;;;;6277138;22;20015;-84
2022/10/10 12:09:14;;;;;;;74.70;62.45;;;;;;;;;;6275440;22;20012;-83
2022/10/10 12:11:40;;;;;;;17.25;15.05;;;;;;;;;;6277175;22;20512;-83
2022/10/10 12:14:08;;;;;;;11.75;10.38;;;;;;;;;;6277376;22;20006;-84
2022/10/10 12:16:36;;;;;;;11.02;9.80;;;;;;;;;;6275476;22;20011;-82
2022/10/10 12:19:07;;;;;;;17.75;15.90;;;;;;;;;;6276311;22;20008;-82
2022/10/10 12:21:51;;;;;;;15.52;13.63;;;;;;;;;;6276885;22;20684;-85
2022/10/10 12:24:17;;;;;;;10.77;9.70;;;;;;;;;;6276116;22;20011;-85
2022/10/10 12:26:52;;;;;;;10.98;9.88;;;;;;;;;;6276785;22;20010;-85
2022/10/10 12:29:37;;;;;;;12.25;11.07;;;;;;;;;;6276573;22;20000;-87
2022/10/10 12:32:16;;;;;;;12.93;11.57;;;;;;;;;;6277592;22;20008;-86
2022/10/10 12:34:48;;;;;;;15.90;14.43;;;;;;;;;;6276786;22;20335;-83
2022/10/10 12:37:33;;;;;;;17.77;16.17;;;;;;;;;;6277290;22;20054;-84
2022/10/10 12:40:01;;;;;;;42.10;35.08;;;;;;;;;;6276721;22;20366;-86
2022/10/10 12:42:32;;;;;;;23.45;20.95;;;;;;;;;;6276648;22;20003;-81
2022/10/10 12:44:58;;;;;;;11.02;9.45;;;;;;;;;;6276876;22;20415;-84
2022/10/10 12:47:29;;;;;;;12.82;11.57;;;;;;;;;;6277507;22;20015;-83
2022/10/10 12:49:57;;;;;;;10.52;9.38;;;;;;;;;;6277718;22;20082;-82
2022/10/10 12:52:26;;;;;;;10.45;9.07;;;;;;;;;;6277046;22;20010;-86
2022/10/10 12:54:53;;;;;;;9.52;8.63;;;;;;;;;;6277052;22;20037;-82
2022/10/10 12:57:38;;;;;;;8.57;7.78;;;;;;;;;;6276251;22;20443;-85
2022/10/10 13:00:15;;;;;;;16.48;8.48;;;;;;;;;;6276537;22;20030;-87
2022/10/10 13:02:42;;;;;;;9.30;8.13;;;;;;;;;;6275547;22;20080;-81
2022/10/10 13:05:11;;;;;;;7.93;7.28;;;;;;;;;;6275394;22;20002;-86
2022/10/10 13:07:37;;;;;;;8.75;7.90;;;;;;;;;;6274714;22;20012;-84
2022/10/10 13:10:08;;;;;;;15.98;14.32;;;;;;;;;;6277132;22;20443;-81
2022/10/10 13:12:34;;;;;;;16.33;14.38;;;;;;;;;;6277067;22;20015;-82
2022/10/10 13:15:00;;;;;;;8.95;8.05;;;;;;;;;;6277748;22;20323;-86
2022/10/10 13:17:37;;;;;;;8.18;7.47;;;;;;;;;;6275526;22;20011;-81
2022/10/10 13:20:04;;;;;;;14.70;11.07;;;;;;;;;;6277247;22;19995;-81
2022/10/10 13:22:32;;;;;;;12.15;11.00;;;;;;;;;;6276280;22;19999;-82
2022/10/10 13:24:59;;;;;;;13.00;11.55;;;;;;;;;;6276822;22;20053;-82
2022/10/10 13:27:31;;;;;;;9.38;8.40;;;;;;;;;;6276781;22;20493;-81
2022/10/10 13:29:57;;;;;;;9.60;8.55;;;;;;;;;;6276582;22;20014;-81
2022/10/10 13:32:25;;;;;;;13.20;11.95;;;;;;;;;;6275174;22;20073;-82
2022/10/10 13:34:53;;;;;;;8.45;7.45;;;;;;;;;;6276594;22;20003;-82
2022/10/10 13:37:19;;;;;;;8.00;7.20;;;;;;;;;;6277078;22;20010;-81
2022/10/10 13:39:47;;;;;;;7.25;6.55;;;;;;;;;;6275725;22;20085;-82
2022/10/10 13:42:22;;;;;;;14.35;11.35;;;;;;;;;;6275770;22;20004;-84
2022/10/10 13:44:50;;;;;;;12.25;9.27;;;;;;;;;;6276284;22;20014;-81
2022/10/10 13:47:35;;;;;;;9.25;8.32;;;;;;;;;;6276904;22;20019;-82
2022/10/10 13:50:02;;;;;;;8.25;7.45;;;;;;;;;;6276584;22;20381;-83
2022/10/10 13:52:28;;;;;;;10.27;7.25;;;;;;;;;;6276182;22;20004;-83
2022/10/10 13:55:13;;;;;;;8.77;7.95;;;;;;;;;;6276274;22;20117;-82
2022/10/10 13:57:39;;;;;;;8.32;7.40;;;;;;;;;;6276697;22;20015;-82
2022/10/10 14:00:07;;;;;;;9.45;7.70;;;;;;;;;;6276100;22;20020;-82
2022/10/10 14:02:35;;;;;;;9.45;7.45;;;;;;;;;;6276349;22;20010;-83
2022/10/10 14:05:06;;;;;;;10.15;7.55;;;;;;;;;;6276516;22;20074;-83
2022/10/10 14:07:32;;;;;;;8.85;8.05;;;;;;;;;;6275700;22;20012;-83
2022/10/10 14:09:58;;;;;;;8.75;7.68;;;;;;;;;;6276397;22;20366;-82
2022/10/10 14:12:29;;;;;;;7.97;7.28;;;;;;;;;;6275754;22;20015;-81
2022/10/10 14:14:57;;;;;;;7.45;6.63;;;;;;;;;;6275655;22;20027;-83
2022/10/10 14:17:23;;;;;;;6.78;6.13;;;;;;;;;;6274319;22;20065;-82
2022/10/10 14:19:50;;;;;;;8.43;7.15;;;;;;;;;;6275978;22;20010;-82
2022/10/10 14:22:16;;;;;;;7.95;6.38;;;;;;;;;;6275894;22;20069;-84
2022/10/10 14:24:42;;;;;;;6.40;5.80;;;;;;;;;;6274040;22;20418;-82
2022/10/10 14:27:27;;;;;;;6.80;6.20;;;;;;;;;;6275735;22;20450;-83
2022/10/10 14:29:54;;;;;;;7.07;6.38;;;;;;;;;;6276284;22;20000;-80
2022/10/10 14:32:21;;;;;;;16.30;14.45;;;;;;;;;;6275842;22;20007;-81